Time;durP1;ratioP1;P1;durP2;ratioP2;P2;SDS_P1;SDS_P2;PMS_P1;PMS_P2;Temp;Humidity;BMP_temperature;BMP_pressure;BME280_temperature;BME280_humidity;BME280_pressure;Samples;Min_cycle;Max_cycle;Signal;HPM_P1;HPM_P2
2020/12/19 00:01:34;;;;;;;40.07;16.07;;;4.30;99.90;;;;;;4979366;28;20751;-70
2020/12/19 00:04:01;;;;;;;47.90;18.40;;;4.30;99.90;;;;;;4999316;28;20215;-71
2020/12/19 00:06:28;;;;;;;52.70;22.50;;;4.30;99.90;;;;;;5006889;28;20207;-70
2020/12/19 00:08:56;;;;;;;56.57;21.93;;;4.30;99.90;;;;;;5010709;28;20231;-69
2020/12/19 00:11:22;;;;;;;62.70;20.63;;;4.30;99.90;;;;;;5056867;28;20260;-70
2020/12/19 00:13:49;;;;;;;48.30;17.60;;;4.30;99.90;;;;;;5069555;28;20603;-71
2020/12/19 00:16:16;;;;;;;45.27;16.57;;;4.30;99.90;;;;;;5069429;28;20297;-71
2020/12/19 00:18:44;;;;;;;49.20;15.53;;;4.30;99.90;;;;;;5070021;28;20695;-71
2020/12/19 00:21:11;;;;;;;52.90;19.03;;;4.40;99.90;;;;;;5070899;28;20340;-71
2020/12/19 00:23:38;;;;;;;57.73;19.23;;;4.30;99.90;;;;;;5070029;28;20831;-71
2020/12/19 00:26:05;;;;;;;61.63;19.67;;;4.30;99.90;;;;;;5070174;28;20255;-71
2020/12/19 00:28:32;;;;;;;58.47;19.43;;;4.40;99.90;;;;;;5047775;28;20355;-71
2020/12/19 00:30:58;;;;;;;70.37;19.90;;;4.40;99.90;;;;;;5032747;28;20205;-70
2020/12/19 00:33:25;;;;;;;72.77;19.77;;;4.40;99.90;;;;;;5048078;28;20279;-69
2020/12/19 00:35:52;;;;;;;58.30;17.27;;;4.40;99.90;;;;;;5049521;28;20237;-70
2020/12/19 00:38:19;;;;;;;44.07;15.63;;;4.40;99.90;;;;;;5048250;28;20209;-71
2020/12/19 00:40:45;;;;;;;45.80;13.40;;;4.40;99.90;;;;;;5041794;28;20233;-71
2020/12/19 00:43:13;;;;;;;34.43;12.80;;;4.40;99.90;;;;;;5045561;28;20213;-71
2020/12/19 00:45:39;;;;;;;31.13;13.03;;;4.40;99.90;;;;;;5045464;28;20648;-70
2020/12/19 00:48:06;;;;;;;27.80;11.50;;;4.40;99.90;;;;;;5059986;28;20252;-70
2020/12/19 00:50:33;;;;;;;29.27;12.17;;;4.40;99.90;;;;;;5068661;28;20660;-70
2020/12/19 00:53:00;;;;;;;30.33;12.10;;;4.40;99.90;;;;;;5049607;28;20205;-71
2020/12/19 00:55:26;;;;;;;28.43;12.27;;;4.40;99.90;;;;;;5048804;28;20652;-70
2020/12/19 00:57:53;;;;;;;26.90;11.10;;;4.40;99.90;;;;;;5049954;28;20194;-69
2020/12/19 01:00:20;;;;;;;25.77;11.00;;;4.40;99.90;;;;;;5014032;28;20265;-70
2020/12/19 01:02:47;;;;;;;22.33;10.10;;;4.40;99.90;;;;;;5042501;28;20197;-71
2020/12/19 01:05:13;;;;;;;28.40;12.40;;;4.50;99.90;;;;;;5032469;28;20210;-69
2020/12/19 01:07:40;;;;;;;35.37;14.67;;;4.40;99.90;;;;;;5009874;28;20227;-71
2020/12/19 01:10:09;;;;;;;35.57;13.77;;;4.40;99.90;;;;;;5009594;28;20215;-71
2020/12/19 01:12:36;;;;;;;35.10;13.90;;;4.40;99.90;;;;;;5010919;28;20287;-70
2020/12/19 01:15:03;;;;;;;31.47;12.67;;;4.30;99.90;;;;;;5009021;28;20233;-70
2020/12/19 01:17:31;;;;;;;23.43;10.97;;;4.30;99.90;;;;;;5010630;28;20210;-70
2020/12/19 01:19:58;;;;;;;26.03;10.60;;;4.30;99.90;;;;;;5013431;28;20263;-70
2020/12/19 01:22:25;;;;;;;23.30;10.30;;;4.30;99.90;;;;;;5033521;28;20337;-70
2020/12/19 01:24:51;;;;;;;26.30;10.93;;;4.30;99.90;;;;;;5028856;28;20248;-70
2020/12/19 01:27:18;;;;;;;22.17;10.33;;;4.30;99.90;;;;;;5029273;28;20222;-70
2020/12/19 01:29:45;;;;;;;27.00;11.07;;;4.30;99.90;;;;;;5027463;28;20201;-70
2020/12/19 01:32:11;;;;;;;29.47;12.13;;;4.30;99.90;;;;;;5045619;28;20218;-70
2020/12/19 01:34:39;;;;;;;31.43;11.60;;;4.30;99.90;;;;;;5048766;28;20209;-70
2020/12/19 01:37:05;;;;;;;29.47;11.33;;;4.30;99.90;;;;;;5049148;28;20205;-70
2020/12/19 01:39:32;;;;;;;27.77;12.17;;;4.30;99.90;;;;;;5089087;28;20215;-70
2020/12/19 01:41:58;;;;;;;26.93;11.97;;;4.30;99.90;;;;;;5045982;28;20235;-71
2020/12/19 01:44:25;;;;;;;23.47;10.83;;;4.30;99.90;;;;;;5046897;28;20241;-70
2020/12/19 01:46:55;;;;;;;26.87;11.80;;;4.30;99.90;;;;;;5048243;28;20210;-70
2020/12/19 01:49:22;;;;;;;27.43;11.90;;;4.30;99.90;;;;;;5049236;28;20205;-72
2020/12/19 01:51:52;;;;;;;24.07;11.43;;;4.30;99.90;;;;;;5048842;28;20235;-70
2020/12/19 01:54:21;;;;;;;23.83;11.90;;;4.30;99.90;;;;;;5048740;28;20209;-71
2020/12/19 01:56:52;;;;;;;28.40;10.77;;;4.20;99.90;;;;;;5049413;28;20215;-71
2020/12/19 01:59:20;;;;;;;23.30;11.47;;;4.20;99.90;;;;;;5038109;28;20201;-71
2020/12/19 02:01:48;;;;;;;24.13;11.60;;;4.20;99.90;;;;;;5048324;28;20209;-71
2020/12/19 02:04:16;;;;;;;23.93;10.47;;;4.10;99.90;;;;;;5028534;28;20643;-70
2020/12/19 02:06:48;;;;;;;26.33;11.20;;;4.10;99.90;;;;;;5028889;28;20293;-70
2020/12/19 02:09:17;;;;;;;25.20;11.23;;;4.10;99.90;;;;;;5047304;28;20260;-70
2020/12/19 02:11:45;;;;;;;30.17;13.53;;;4.00;99.90;;;;;;5048606;28;20205;-70
2020/12/19 02:14:13;;;;;;;32.30;13.80;;;3.90;99.90;;;;;;5027244;28;20207;-70
2020/12/19 02:16:53;;;;;;;31.80;13.27;;;3.80;99.90;;;;;;5027453;28;20230;-70
2020/12/19 02:19:19;;;;;;;29.57;13.13;;;3.80;99.90;;;;;;5027813;28;20573;-70
2020/12/19 02:21:46;;;;;;;25.07;11.53;;;3.70;99.90;;;;;;5028949;28;20388;-71
2020/12/19 02:24:13;;;;;;;28.90;11.67;;;3.70;99.90;;;;;;5039115;28;20699;-70
2020/12/19 02:26:40;;;;;;;30.07;12.57;;;3.70;99.90;;;;;;5044130;28;20198;-71
2020/12/19 02:29:07;;;;;;;27.30;11.20;;;3.70;99.90;;;;;;5006489;28;20231;-70
2020/12/19 02:31:35;;;;;;;36.37;12.30;;;3.70;99.90;;;;;;5006527;28;20277;-69
2020/12/19 02:34:01;;;;;;;31.30;11.40;;;3.70;99.90;;;;;;4987924;28;20314;-70
2020/12/19 02:36:28;;;;;;;33.90;11.70;;;3.70;99.90;;;;;;4985384;28;20217;-70
2020/12/19 02:38:54;;;;;;;28.77;11.17;;;3.70;99.90;;;;;;4986866;28;20247;-70
2020/12/19 02:41:22;;;;;;;30.90;11.23;;;3.80;99.90;;;;;;4987247;28;20592;-70
2020/12/19 02:43:52;;;;;;;28.43;11.57;;;3.80;99.90;;;;;;4959515;28;20213;-70
2020/12/19 02:46:19;;;;;;;30.97;12.23;;;3.80;99.90;;;;;;4965113;28;20208;-70
2020/12/19 02:48:46;;;;;;;30.17;11.17;;;3.80;99.90;;;;;;4948987;29;20235;-70
2020/12/19 02:51:12;;;;;;;25.80;10.03;;;3.70;99.90;;;;;;4949516;29;20328;-70
2020/12/19 02:53:39;;;;;;;22.87;9.93;;;3.80;99.90;;;;;;4930236;29;20811;-70
2020/12/19 03:08:22;;;;;;;39.73;16.63;;;3.70;99.90;;;;;;5146548;27;20554;-68
2020/12/19 03:10:49;;;;;;;38.33;13.90;;;4.40;99.90;;;;;;5145065;27;20198;-68
2020/12/19 03:13:16;;;;;;;37.80;13.50;;;4.30;99.90;;;;;;5138501;27;20252;-68
2020/12/19 03:15:42;;;;;;;39.70;13.77;;;4.30;99.90;;;;;;5141875;27;20199;-68
2020/12/19 03:18:09;;;;;;;34.30;12.27;;;4.30;99.90;;;;;;5132125;27;20307;-68
2020/12/19 03:20:35;;;;;;;44.33;16.70;;;4.30;99.90;;;;;;5144766;27;20227;-68
2020/12/19 03:23:02;;;;;;;40.83;16.07;;;4.20;99.90;;;;;;5144906;27;20325;-68
2020/12/19 03:25:30;;;;;;;62.43;17.40;;;4.20;99.90;;;;;;5143702;27;20206;-68
2020/12/19 03:27:57;;;;;;;51.33;16.73;;;4.10;99.90;;;;;;5130796;27;20258;-69
2020/12/19 03:30:24;;;;;;;46.47;15.93;;;4.00;99.90;;;;;;5097923;28;20651;-69
2020/12/19 03:32:52;;;;;;;46.33;16.53;;;4.00;99.90;;;;;;5103354;28;20237;-68
2020/12/19 03:35:18;;;;;;;37.90;13.10;;;3.90;99.90;;;;;;5098292;28;20291;-68
2020/12/19 03:37:45;;;;;;;31.80;12.13;;;3.90;99.90;;;;;;5103177;28;20223;-68
2020/12/19 03:40:11;;;;;;;28.80;11.73;;;3.90;99.90;;;;;;5103199;28;20196;-68
2020/12/19 03:42:39;;;;;;;32.07;12.57;;;3.80;99.90;;;;;;5081386;28;20291;-68
2020/12/19 03:45:07;;;;;;;25.23;11.07;;;3.80;99.90;;;;;;5081894;28;20703;-68
2020/12/19 03:47:33;;;;;;;26.77;10.07;;;3.80;99.90;;;;;;5058067;28;20205;-68
2020/12/19 03:50:01;;;;;;;23.27;9.07;;;3.70;99.90;;;;;;5048306;28;20583;-68
2020/12/19 03:52:27;;;;;;;22.63;8.70;;;3.70;99.90;;;;;;5058909;28;20194;-68
2020/12/19 03:54:54;;;;;;;18.57;7.90;;;3.70;99.90;;;;;;5062283;28;20305;-68
2020/12/19 03:57:21;;;;;;;24.33;8.27;;;3.70;99.90;;;;;;5062170;28;20217;-68
2020/12/19 03:59:48;;;;;;;40.73;11.03;;;3.60;99.90;;;;;;5042528;28;20208;-68
2020/12/19 04:02:15;;;;;;;31.37;11.07;;;3.60;99.90;;;;;;5052176;28;20205;-69
2020/12/19 04:04:41;;;;;;;30.93;13.10;;;3.50;99.90;;;;;;5057967;28;20342;-68
2020/12/19 04:07:09;;;;;;;29.97;12.27;;;3.40;99.90;;;;;;5060205;28;20231;-68
2020/12/19 04:09:36;;;;;;;30.20;12.03;;;3.30;99.90;;;;;;5073397;28;20639;-68
2020/12/19 04:12:02;;;;;;;26.50;11.13;;;3.20;99.90;;;;;;5053225;28;20206;-68
2020/12/19 04:14:37;;;;;;;21.67;9.37;;;3.20;99.90;;;;;;5052474;28;20209;-68
2020/12/19 04:17:07;;;;;;;21.53;9.03;;;3.20;99.90;;;;;;5049996;28;20405;-69
2020/12/19 04:19:33;;;;;;;20.97;9.27;;;3.10;99.90;;;;;;5064999;28;20209;-69
2020/12/19 04:22:00;;;;;;;24.57;9.60;;;3.10;99.90;;;;;;5085314;28;20587;-69
2020/12/19 04:24:27;;;;;;;19.03;8.37;;;3.00;99.90;;;;;;5079543;28;20201;-68
2020/12/19 04:26:53;;;;;;;22.37;8.53;;;3.00;99.90;;;;;;5084610;28;20312;-69
2020/12/19 04:29:20;;;;;;;19.37;7.90;;;3.00;99.90;;;;;;5076750;28;20212;-68
2020/12/19 04:31:46;;;;;;;22.43;7.87;;;3.00;99.90;;;;;;5088306;28;20576;-69
2020/12/19 04:34:14;;;;;;;18.60;8.17;;;3.00;99.90;;;;;;5082220;28;20274;-68
2020/12/19 04:36:41;;;;;;;20.43;8.00;;;3.00;99.90;;;;;;5086788;28;20220;-68
2020/12/19 04:39:08;;;;;;;19.63;8.53;;;3.00;99.90;;;;;;5062925;28;20217;-68
2020/12/19 04:41:34;;;;;;;19.60;7.87;;;2.90;99.90;;;;;;5048688;28;20206;-68
2020/12/19 04:44:02;;;;;;;20.97;8.50;;;3.00;99.90;;;;;;5061871;28;20205;-68
2020/12/19 04:46:30;;;;;;;25.47;9.13;;;3.00;99.90;;;;;;5076954;28;20424;-69
2020/12/19 04:48:58;;;;;;;21.97;9.00;;;3.00;99.90;;;;;;5079718;28;20632;-69
2020/12/19 04:51:27;;;;;;;17.83;7.90;;;3.00;99.90;;;;;;5099838;28;20288;-69
2020/12/19 04:53:54;;;;;;;20.97;9.27;;;3.00;99.90;;;;;;5091416;28;20204;-69
2020/12/19 04:56:23;;;;;;;27.03;10.67;;;3.10;99.90;;;;;;5098209;28;20327;-69
2020/12/19 04:58:54;;;;;;;26.10;10.00;;;3.10;99.90;;;;;;5063156;28;20196;-69
2020/12/19 05:01:21;;;;;;;20.13;8.60;;;3.00;99.90;;;;;;5079507;28;20212;-69
2020/12/19 05:03:49;;;;;;;20.37;7.33;;;3.00;99.90;;;;;;5074344;28;20721;-68
2020/12/19 05:06:19;;;;;;;20.83;7.20;;;3.00;99.90;;;;;;5077485;28;20252;-68
2020/12/19 05:08:47;;;;;;;20.03;6.77;;;3.00;99.90;;;;;;5069827;28;20571;-68
2020/12/19 05:11:14;;;;;;;15.63;6.00;;;3.10;99.90;;;;;;5025165;28;20203;-68
2020/12/19 05:13:42;;;;;;;19.00;6.80;;;3.10;99.90;;;;;;5028577;28;20605;-68
2020/12/19 05:16:10;;;;;;;17.00;6.23;;;3.10;99.90;;;;;;5033160;28;20276;-68
2020/12/19 05:18:37;;;;;;;19.03;7.53;;;3.10;99.90;;;;;;5009714;28;20210;-68
2020/12/19 05:21:04;;;;;;;16.53;6.77;;;3.00;99.90;;;;;;5008651;28;20577;-68
2020/12/19 05:23:33;;;;;;;25.03;7.90;;;3.00;99.90;;;;;;4968459;28;20257;-68
2020/12/19 05:26:03;;;;;;;17.10;6.80;;;3.00;99.90;;;;;;4985857;28;20251;-68
2020/12/19 05:28:30;;;;;;;15.70;6.73;;;2.90;99.90;;;;;;4987399;28;20212;-68
2020/12/19 05:30:59;;;;;;;16.47;6.53;;;3.00;99.90;;;;;;5035931;28;20259;-68
2020/12/19 05:33:30;;;;;;;20.67;6.80;;;3.00;99.90;;;;;;5022877;28;20202;-68
2020/12/19 05:35:56;;;;;;;14.87;5.97;;;2.90;99.90;;;;;;5044375;28;20194;-68
2020/12/19 05:38:28;;;;;;;13.63;6.27;;;3.00;99.90;;;;;;5034833;28;20361;-68
2020/12/19 05:40:54;;;;;;;15.63;6.23;;;3.00;99.90;;;;;;4987049;28;20279;-68
2020/12/19 05:43:22;;;;;;;18.23;6.63;;;2.90;99.90;;;;;;4963416;28;20247;-68
2020/12/19 05:45:48;;;;;;;20.43;6.50;;;3.00;99.90;;;;;;4968339;28;20233;-68
2020/12/19 05:48:15;;;;;;;18.90;6.20;;;3.00;99.90;;;;;;4968777;28;20212;-68
2020/12/19 05:50:42;;;;;;;13.40;6.07;;;3.00;99.90;;;;;;4987648;28;20204;-68
2020/12/19 05:53:09;;;;;;;14.30;6.37;;;3.00;99.90;;;;;;4987666;28;20275;-68
2020/12/19 05:55:36;;;;;;;14.90;5.87;;;2.40;99.90;;;;;;5025334;28;20206;-68
2020/12/19 05:58:05;;;;;;;16.97;6.37;;;3.00;99.90;;;;;;5025761;28;20245;-68
2020/12/19 06:00:33;;;;;;;16.07;6.17;;;3.00;99.90;;;;;;5026434;28;20221;-67
2020/12/19 06:03:02;;;;;;;20.13;7.27;;;3.00;99.90;;;;;;5027196;28;20332;-67
2020/12/19 06:05:30;;;;;;;18.20;6.77;;;3.00;99.90;;;;;;5028070;28;20252;-68
2020/12/19 06:07:58;;;;;;;19.90;7.33;;;3.00;99.90;;;;;;5026996;28;20232;-67
2020/12/19 06:10:25;;;;;;;20.60;7.30;;;3.10;99.90;;;;;;5027523;28;20245;-67
2020/12/19 06:12:58;;;;;;;21.33;7.53;;;3.10;99.90;;;;;;5026380;28;20238;-67
2020/12/19 06:15:36;;;;;;;20.33;7.87;;;3.00;99.90;;;;;;5066477;28;20292;-67
2020/12/19 06:18:08;;;;;;;20.83;7.83;;;3.10;99.90;;;;;;5075565;28;20305;-67
2020/12/19 06:20:36;;;;;;;16.37;7.23;;;3.00;99.90;;;;;;5087670;28;20215;-67
2020/12/19 06:23:13;;;;;;;21.57;7.70;;;3.10;99.90;;;;;;5065179;28;20204;-67
2020/12/19 06:25:41;;;;;;;20.53;7.10;;;3.00;99.90;;;;;;5074248;28;20208;-67
2020/12/19 06:28:09;;;;;;;23.83;7.03;;;3.00;99.90;;;;;;5114846;27;20235;-67
2020/12/19 06:30:37;;;;;;;21.80;7.63;;;3.00;99.90;;;;;;5114052;27;20699;-67
2020/12/19 06:33:14;;;;;;;21.83;7.53;;;3.10;99.90;;;;;;5125911;27;20534;-67
2020/12/19 06:35:49;;;;;;;34.00;8.67;;;3.10;99.90;;;;;;5108384;27;20217;-67
2020/12/19 06:38:40;;;;;;;24.37;8.47;;;3.10;99.90;;;;;;5104978;28;20547;-67
2020/12/19 06:41:07;;;;;;;24.97;9.50;;;3.10;99.90;;;;;;5096439;28;20242;-67
2020/12/19 06:43:34;;;;;;;24.93;8.83;;;3.10;99.90;;;;;;5058733;28;20546;-67
2020/12/19 06:46:01;;;;;;;25.03;9.70;;;3.10;99.90;;;;;;5057674;28;20208;-67
2020/12/19 06:48:29;;;;;;;23.50;9.30;;;3.10;99.90;;;;;;5066889;28;20691;-67
2020/12/19 06:51:01;;;;;;;26.77;9.93;;;3.10;99.90;;;;;;5027362;28;20562;-66
2020/12/19 06:53:29;;;;;;;28.63;9.30;;;3.10;99.90;;;;;;5021592;28;20233;-66
2020/12/19 06:55:56;;;;;;;25.37;8.73;;;3.10;99.90;;;;;;5019748;28;20303;-67
2020/12/19 06:58:32;;;;;;;23.30;9.37;;;3.10;99.90;;;;;;5011400;28;20256;-67
2020/12/19 07:01:01;;;;;;;29.17;10.40;;;3.20;99.90;;;;;;5039864;28;20201;-67
2020/12/19 07:03:45;;;;;;;30.53;11.77;;;3.20;99.90;;;;;;5046116;28;20210;-67
2020/12/19 07:06:13;;;;;;;35.70;12.67;;;3.20;99.90;;;;;;5046502;28;20201;-67
2020/12/19 07:08:40;;;;;;;30.37;11.77;;;3.20;99.90;;;;;;5042876;28;20624;-67
2020/12/19 07:11:13;;;;;;;34.20;12.00;;;3.20;99.90;;;;;;5063349;28;20630;-67
2020/12/19 07:13:56;;;;;;;39.90;12.80;;;3.20;99.90;;;;;;5065145;28;20219;-67
2020/12/19 07:16:46;;;;;;;33.80;11.93;;;3.20;99.90;;;;;;5050953;28;20248;-67
2020/12/19 07:19:24;;;;;;;30.23;11.43;;;3.20;99.90;;;;;;5059317;28;20200;-67
2020/12/19 07:21:53;;;;;;;29.33;11.10;;;3.20;99.90;;;;;;5100023;28;20210;-67
2020/12/19 07:24:20;;;;;;;31.83;12.57;;;3.30;99.90;;;;;;5124023;28;20263;-67
2020/12/19 07:26:46;;;;;;;30.23;11.07;;;3.30;99.90;;;;;;5126596;28;20646;-67
2020/12/19 07:29:15;;;;;;;32.43;11.93;;;3.30;99.90;;;;;;5118038;28;20195;-67
2020/12/19 07:31:47;;;;;;;33.40;11.93;;;3.30;99.90;;;;;;5119379;28;20255;-69
2020/12/19 07:34:16;;;;;;;33.57;12.67;;;3.40;99.90;;;;;;5111299;28;20237;-67
2020/12/19 07:36:44;;;;;;;35.80;12.97;;;3.40;99.90;;;;;;5099317;28;20626;-67
2020/12/19 07:39:11;;;;;;;48.27;14.40;;;3.40;99.90;;;;;;5106041;28;20601;-67
2020/12/19 07:41:38;;;;;;;48.17;16.97;;;3.40;99.90;;;;;;5068635;28;20202;-67
2020/12/19 07:44:09;;;;;;;40.97;15.43;;;3.40;99.90;;;;;;5057967;28;20730;-67
2020/12/19 07:46:36;;;;;;;41.60;15.10;;;3.40;99.90;;;;;;5065695;28;20266;-67
2020/12/19 07:49:03;;;;;;;49.00;16.83;;;3.40;99.90;;;;;;5048178;28;20632;-67
2020/12/19 07:51:30;;;;;;;39.57;16.30;;;3.40;99.90;;;;;;5062887;28;20617;-67
2020/12/19 07:53:56;;;;;;;43.17;16.27;;;3.50;99.90;;;;;;5060279;28;20693;-67
2020/12/19 07:56:24;;;;;;;44.87;15.17;;;3.50;99.90;;;;;;5040473;28;20222;-67
2020/12/19 07:58:51;;;;;;;38.77;15.23;;;3.50;99.90;;;;;;5045110;28;20206;-67
2020/12/19 08:01:18;;;;;;;34.77;13.07;;;3.60;99.90;;;;;;5048844;28;20259;-67
2020/12/19 08:03:59;;;;;;;39.60;14.80;;;3.60;99.90;;;;;;5029015;28;20216;-67
2020/12/19 08:06:40;;;;;;;41.80;14.20;;;3.70;99.90;;;;;;5029224;28;20654;-67
2020/12/19 08:09:07;;;;;;;38.73;14.03;;;3.70;99.90;;;;;;5004710;28;20242;-67
2020/12/19 08:11:43;;;;;;;47.63;15.73;;;3.70;99.90;;;;;;5008388;28;20269;-67
2020/12/19 08:14:10;;;;;;;49.57;17.20;;;3.80;99.90;;;;;;5008135;28;20198;-67
2020/12/19 08:16:37;;;;;;;47.43;18.27;;;3.80;99.90;;;;;;4986575;28;20236;-67
2020/12/19 08:19:05;;;;;;;53.33;19.13;;;3.80;99.90;;;;;;4989777;28;20267;-67
2020/12/19 08:21:32;;;;;;;46.63;18.63;;;3.90;99.90;;;;;;4964137;28;20617;-66
2020/12/19 08:24:01;;;;;;;47.13;19.40;;;3.90;99.90;;;;;;4984747;28;20688;-67
2020/12/19 08:26:27;;;;;;;49.30;18.83;;;3.90;99.90;;;;;;4984633;28;20212;-67
2020/12/19 08:29:05;;;;;;;50.87;19.07;;;4.00;99.90;;;;;;4971598;28;20225;-67
2020/12/19 08:31:34;;;;;;;47.17;18.60;;;4.00;99.90;;;;;;4985877;28;20586;-68
2020/12/19 08:34:04;;;;;;;45.93;18.03;;;4.00;99.90;;;;;;5007717;28;20241;-67
2020/12/19 08:36:32;;;;;;;47.87;18.53;;;4.10;99.90;;;;;;5005466;28;20226;-67
2020/12/19 08:39:16;;;;;;;42.00;17.37;;;4.10;99.90;;;;;;5014114;28;20385;-68
2020/12/19 08:41:43;;;;;;;44.30;16.73;;;4.10;99.90;;;;;;5017936;28;20264;-67
2020/12/19 08:44:22;;;;;;;43.17;16.10;;;4.20;99.90;;;;;;5009583;28;20306;-68
2020/12/19 08:47:02;;;;;;;48.73;17.90;;;4.20;99.90;;;;;;4987150;28;20211;-68
2020/12/19 08:49:29;;;;;;;53.43;20.13;;;4.20;99.90;;;;;;5007045;28;20686;-67
2020/12/19 08:51:56;;;;;;;50.00;18.47;;;4.20;99.90;;;;;;4998226;28;20212;-67
2020/12/19 08:54:24;;;;;;;41.43;17.23;;;4.30;99.90;;;;;;5007050;28;20298;-67
2020/12/19 08:56:51;;;;;;;43.63;16.03;;;4.20;99.90;;;;;;5006128;28;20223;-67
2020/12/19 08:59:27;;;;;;;47.10;17.70;;;4.30;99.90;;;;;;5005358;28;20233;-66
2020/12/19 09:01:55;;;;;;;50.37;19.23;;;4.30;99.90;;;;;;5006238;28;20210;-68
2020/12/19 09:04:22;;;;;;;56.40;19.43;;;4.30;99.90;;;;;;5005523;28;20799;-67
2020/12/19 09:06:49;;;;;;;54.13;21.43;;;4.30;99.90;;;;;;5006491;28;20230;-68
2020/12/19 09:09:26;;;;;;;49.80;20.50;;;4.20;99.90;;;;;;5001226;28;20218;-68
2020/12/19 09:12:07;;;;;;;57.27;20.93;;;4.20;99.90;;;;;;5026244;28;20221;-67
2020/12/19 09:14:33;;;;;;;51.87;19.47;;;4.20;99.90;;;;;;5025988;28;20194;-67
2020/12/19 09:17:00;;;;;;;47.57;18.60;;;4.20;99.90;;;;;;5031291;28;20234;-67
2020/12/19 09:19:27;;;;;;;46.80;18.00;;;4.20;99.90;;;;;;5080870;28;20314;-67
2020/12/19 09:21:54;;;;;;;48.07;18.77;;;4.30;99.90;;;;;;5078804;28;20201;-67
2020/12/19 09:24:21;;;;;;;47.47;17.87;;;4.30;99.90;;;;;;5123606;27;20226;-67
2020/12/19 09:26:48;;;;;;;45.23;17.50;;;4.30;99.90;;;;;;5099204;28;20200;-67
2020/12/19 09:29:15;;;;;;;48.70;18.70;;;4.40;99.90;;;;;;5105985;28;20208;-67
2020/12/19 09:31:42;;;;;;;53.40;17.93;;;4.40;99.90;;;;;;5090800;28;20224;-67
2020/12/19 09:34:09;;;;;;;53.47;19.97;;;4.50;99.90;;;;;;5087461;28;20208;-67
2020/12/19 09:36:36;;;;;;;58.47;21.93;;;4.50;99.90;;;;;;5084305;28;20588;-67
2020/12/19 09:39:04;;;;;;;53.43;20.27;;;4.60;99.90;;;;;;5090270;28;20234;-67
2020/12/19 09:41:30;;;;;;;53.47;21.63;;;4.60;99.90;;;;;;5100814;28;20353;-68
2020/12/19 09:43:57;;;;;;;54.90;21.47;;;4.60;99.90;;;;;;5094964;28;20269;-67
2020/12/19 09:46:25;;;;;;;60.07;19.93;;;4.60;99.90;;;;;;5085321;28;20215;-67
2020/12/19 09:48:51;;;;;;;53.83;21.83;;;4.70;99.90;;;;;;5107567;28;20191;-67
2020/12/19 09:51:18;;;;;;;54.20;22.40;;;4.80;99.90;;;;;;5108501;28;20268;-67
2020/12/19 09:53:44;;;;;;;56.03;19.93;;;4.90;99.90;;;;;;5079474;28;20556;-66
2020/12/19 09:56:11;;;;;;;58.73;22.17;;;4.90;99.90;;;;;;5077476;28;20299;-67
2020/12/19 09:58:38;;;;;;;50.87;19.40;;;5.00;99.90;;;;;;5091670;27;20202;-67
2020/12/19 10:01:04;;;;;;;52.03;19.70;;;5.00;99.90;;;;;;5072216;28;20216;-67
2020/12/19 10:03:32;;;;;;;61.30;22.30;;;5.10;99.90;;;;;;5061938;28;20209;-67
2020/12/19 10:05:59;;;;;;;55.70;23.00;;;5.20;99.90;;;;;;5054424;28;20210;-67
2020/12/19 10:08:26;;;;;;;52.97;21.03;;;5.20;99.90;;;;;;5041813;28;20386;-67
2020/12/19 10:10:52;;;;;;;53.77;19.87;;;5.20;99.90;;;;;;5048406;28;20219;-67
2020/12/19 10:13:19;;;;;;;54.70;21.33;;;5.30;99.90;;;;;;5052150;28;20690;-68
2020/12/19 10:15:46;;;;;;;43.20;18.77;;;5.30;99.90;;;;;;5048146;28;20870;-68
2020/12/19 10:18:13;;;;;;;46.87;19.53;;;5.40;99.90;;;;;;5055420;28;20242;-68
2020/12/19 10:20:40;;;;;;;48.90;19.33;;;5.50;99.90;;;;;;5057100;28;20292;-68
2020/12/19 10:23:07;;;;;;;41.13;17.33;;;5.50;99.90;;;;;;5071244;28;20210;-68
2020/12/19 10:25:33;;;;;;;49.20;19.87;;;5.60;99.90;;;;;;5042862;28;20362;-68
2020/12/19 10:28:00;;;;;;;49.77;20.40;;;5.60;99.90;;;;;;5005889;28;20232;-68
2020/12/19 10:30:26;;;;;;;46.90;19.90;;;5.70;99.90;;;;;;4986036;28;20251;-68
2020/12/19 10:32:53;;;;;;;50.58;20.38;;;5.70;99.90;;;;;;5020624;28;20459;-67
2020/12/19 10:35:20;;;;;;;53.03;20.40;;;5.70;99.90;;;;;;5033174;28;20584;-67
2020/12/19 10:37:50;;;;;;;47.77;18.80;;;5.70;99.90;;;;;;5041171;28;20231;-67
2020/12/19 10:40:17;;;;;;;58.33;21.37;;;5.70;99.90;;;;;;5042489;28;20244;-67
2020/12/19 10:42:45;;;;;;;49.10;19.80;;;5.70;99.90;;;;;;5008114;28;20209;-67
2020/12/19 10:45:12;;;;;;;44.17;18.23;;;5.70;99.90;;;;;;4961937;28;20219;-67
2020/12/19 10:47:39;;;;;;;47.00;18.73;;;5.80;99.90;;;;;;4962980;28;20203;-67
2020/12/19 10:50:05;;;;;;;57.27;20.40;;;5.80;99.90;;;;;;4943853;28;20675;-67
2020/12/19 10:52:32;;;;;;;48.17;19.40;;;5.90;99.90;;;;;;4945286;28;20223;-67
2020/12/19 10:54:59;;;;;;;50.00;19.20;;;5.90;99.90;;;;;;4945670;28;20370;-67
2020/12/19 10:57:26;;;;;;;54.10;20.43;;;5.90;99.90;;;;;;4961516;28;20241;-66
2020/12/19 10:59:52;;;;;;;48.27;19.90;;;5.90;99.90;;;;;;4978823;28;20789;-67
2020/12/19 11:02:19;;;;;;;52.73;19.40;;;6.00;99.90;;;;;;4982422;28;20217;-67
2020/12/19 11:04:46;;;;;;;47.17;18.80;;;6.00;99.90;;;;;;5001008;28;20694;-67
2020/12/19 11:07:12;;;;;;;58.57;19.53;;;6.10;99.90;;;;;;5018412;28;20363;-68
2020/12/19 11:09:39;;;;;;;61.93;25.17;;;6.10;99.90;;;;;;5037644;28;20516;-69
2020/12/19 11:12:06;;;;;;;52.80;21.33;;;6.10;99.90;;;;;;5038570;28;20214;-68
2020/12/19 11:14:33;;;;;;;55.30;19.80;;;6.10;99.90;;;;;;5037813;28;20797;-68
2020/12/19 11:17:00;;;;;;;42.50;19.00;;;6.10;99.90;;;;;;5070218;28;20226;-68
2020/12/19 11:19:26;;;;;;;45.30;18.07;;;6.20;99.90;;;;;;5084212;28;20253;-68
2020/12/19 11:21:53;;;;;;;43.13;17.20;;;6.30;99.90;;;;;;5119277;27;20214;-68
2020/12/19 11:24:19;;;;;;;41.70;18.23;;;6.40;99.90;;;;;;5130948;27;20231;-68
2020/12/19 11:26:48;;;;;;;42.23;17.03;;;6.30;99.90;;;;;;5131488;27;20206;-68
2020/12/19 11:29:15;;;;;;;41.47;17.43;;;6.30;99.90;;;;;;5085954;28;20297;-68
2020/12/19 11:31:42;;;;;;;45.00;19.10;;;6.30;99.90;;;;;;5047698;28;20272;-68
2020/12/19 11:34:12;;;;;;;47.50;19.52;;;6.30;99.90;;;;;;5050771;28;20500;-68
2020/12/19 11:36:39;;;;;;;45.50;18.73;;;6.30;99.90;;;;;;5051615;28;20210;-67
2020/12/19 11:39:07;;;;;;;43.67;17.80;;;6.30;99.90;;;;;;5048148;28;20776;-68
2020/12/19 11:41:34;;;;;;;51.97;21.13;;;6.30;99.90;;;;;;5050287;28;20436;-68
2020/12/19 11:44:01;;;;;;;42.60;18.30;;;6.30;99.90;;;;;;5030981;28;20542;-68
2020/12/19 11:46:28;;;;;;;38.37;16.60;;;6.30;99.90;;;;;;5030758;28;20210;-68
2020/12/19 11:48:55;;;;;;;39.07;16.63;;;6.30;99.90;;;;;;5004276;28;20269;-68
2020/12/19 11:51:27;;;;;;;39.40;17.23;;;6.30;99.90;;;;;;5014020;28;20293;-68
2020/12/19 11:53:54;;;;;;;42.73;16.90;;;6.40;99.90;;;;;;5014002;28;20218;-68
2020/12/19 11:56:20;;;;;;;39.27;17.13;;;6.40;99.90;;;;;;5010741;28;20290;-68
2020/12/19 11:58:47;;;;;;;47.50;18.63;;;6.40;99.90;;;;;;4959764;28;20691;-67
2020/12/19 12:01:13;;;;;;;39.03;17.87;;;6.40;99.90;;;;;;4967116;28;20293;-67
2020/12/19 12:03:41;;;;;;;40.00;16.37;;;6.40;99.90;;;;;;4982237;28;20250;-67
2020/12/19 12:06:08;;;;;;;52.43;21.67;;;6.40;99.90;;;;;;4993270;28;20633;-67
2020/12/19 12:08:34;;;;;;;56.97;23.50;;;6.40;99.90;;;;;;5003534;28;20207;-67
2020/12/19 12:11:01;;;;;;;45.87;20.13;;;6.40;99.90;;;;;;5009013;28;20229;-67
2020/12/19 12:13:27;;;;;;;40.83;18.83;;;6.50;99.90;;;;;;5005391;28;20364;-67
2020/12/19 12:15:54;;;;;;;39.73;17.87;;;6.60;99.90;;;;;;5025627;28;20208;-67
2020/12/19 12:18:20;;;;;;;44.27;19.57;;;6.70;99.90;;;;;;4990812;28;20325;-67
2020/12/19 12:20:48;;;;;;;38.23;17.30;;;6.70;99.90;;;;;;5015021;28;20300;-67
2020/12/19 12:23:14;;;;;;;41.47;17.37;;;6.70;99.90;;;;;;5027816;28;20249;-68
2020/12/19 12:25:41;;;;;;;35.70;16.37;;;6.80;99.90;;;;;;5017408;28;20221;-67
2020/12/19 12:28:08;;;;;;;34.53;16.00;;;6.80;99.90;;;;;;5015745;28;20252;-68
2020/12/19 12:30:34;;;;;;;36.60;15.97;;;6.80;99.90;;;;;;5044407;28;20212;-68
2020/12/19 12:33:01;;;;;;;39.30;16.63;;;6.90;99.90;;;;;;5029924;28;20205;-68
2020/12/19 12:35:27;;;;;;;36.07;15.77;;;6.90;99.90;;;;;;5030353;28;20284;-68
2020/12/19 12:37:55;;;;;;;39.10;17.33;;;6.90;99.90;;;;;;5060748;28;20262;-68
2020/12/19 12:40:21;;;;;;;36.17;16.13;;;6.90;99.90;;;;;;5071101;28;20200;-67
2020/12/19 12:42:48;;;;;;;35.90;15.77;;;6.80;99.90;;;;;;5069767;28;20240;-68
2020/12/19 12:45:14;;;;;;;34.00;15.03;;;6.80;99.90;;;;;;5067893;28;20243;-68
2020/12/19 12:47:41;;;;;;;32.97;13.90;;;6.80;99.90;;;;;;5076050;28;20209;-68
2020/12/19 12:50:09;;;;;;;30.47;14.30;;;6.80;99.90;;;;;;5103835;27;20585;-68
2020/12/19 12:52:36;;;;;;;39.13;15.60;;;6.70;99.90;;;;;;5097262;28;20765;-68
2020/12/19 12:55:03;;;;;;;40.10;15.77;;;6.70;99.90;;;;;;5089493;28;20204;-68